createdAt,value
2022-12-14T00:01:49.513Z,27.53
2022-12-14T00:04:18.679Z,29.90
2022-12-14T00:06:47.344Z,28.37
2022-12-14T00:09:18.112Z,27.77
2022-12-14T00:11:46.805Z,27.80
2022-12-14T00:14:15.554Z,27.20
2022-12-14T00:16:44.276Z,28.73
2022-12-14T00:19:13.029Z,27.87
2022-12-14T00:21:41.693Z,26.13
2022-12-14T00:24:12.384Z,25.87
2022-12-14T00:26:41.062Z,25.80
2022-12-14T00:29:09.883Z,26.17
2022-12-14T00:31:40.045Z,25.47
2022-12-14T00:34:09.127Z,27.63
2022-12-14T00:36:39.515Z,27.50
2022-12-14T00:39:11.419Z,28.73
2022-12-14T00:41:41.604Z,31.07
2022-12-14T00:44:10.751Z,30.87
2022-12-14T00:46:40.707Z,30.73
2022-12-14T00:49:10.613Z,32.40
2022-12-14T00:51:41.757Z,29.07
2022-12-14T00:54:11.238Z,27.37
2022-12-14T00:56:40.145Z,28.00
2022-12-14T00:59:11.607Z,26.63
2022-12-14T01:01:40.459Z,27.53
2022-12-14T01:04:21.089Z,28.50
2022-12-14T01:06:53.157Z,25.95
2022-12-14T01:09:24.965Z,27.20
2022-12-14T01:11:53.930Z,27.97
2022-12-14T01:14:23.413Z,23.93
2022-12-14T01:16:52.178Z,24.87
2022-12-14T01:19:20.829Z,26.77
2022-12-14T01:21:49.576Z,27.13
2022-12-14T01:24:19.406Z,25.37
2022-12-14T01:26:48.381Z,24.33
2022-12-14T01:29:17.254Z,25.30
2022-12-14T01:31:48.841Z,26.25
2022-12-14T01:34:18.746Z,24.83
2022-12-14T01:36:48.552Z,26.03
2022-12-14T01:39:18.887Z,26.30
2022-12-14T01:41:51.645Z,27.03
2022-12-14T01:44:52.764Z,28.63
2022-12-14T01:47:28.634Z,26.03
2022-12-14T01:50:03.013Z,27.20
2022-12-14T01:52:39.113Z,27.93
2022-12-14T01:55:13.765Z,26.47
2022-12-14T01:57:47.687Z,23.00
2022-12-14T02:00:18.087Z,24.67
2022-12-14T02:02:53.006Z,26.07
2022-12-14T02:05:25.131Z,26.10
2022-12-14T02:07:56.483Z,27.30
2022-12-14T02:10:29.379Z,27.17
2022-12-14T02:13:04.141Z,27.63
2022-12-14T02:15:35.284Z,26.33
2022-12-14T02:18:09.201Z,26.03
2022-12-14T02:20:53.343Z,23.60
2022-12-14T02:23:57.740Z,25.80
2022-12-14T02:26:57.143Z,29.18
2022-12-14T02:29:56.219Z,23.10
2022-12-14T02:32:50.158Z,24.17
2022-12-14T02:35:30.606Z,24.90
2022-12-14T02:38:12.714Z,24.77
2022-12-14T02:40:54.459Z,26.60
2022-12-14T02:43:31.152Z,24.17
2022-12-14T02:46:10.510Z,26.73
2022-12-14T02:48:45.292Z,25.17
2022-12-14T02:51:24.754Z,26.47
2022-12-14T02:54:01.156Z,26.33
2022-12-14T02:56:37.147Z,27.97
2022-12-14T02:59:10.451Z,24.00
2022-12-14T03:01:41.871Z,25.43
2022-12-14T03:04:16.181Z,28.17
2022-12-14T03:06:57.260Z,26.00
2022-12-14T03:09:29.831Z,24.73
2022-12-14T03:12:04.484Z,23.90
2022-12-14T03:14:39.066Z,26.00
2022-12-14T03:17:17.579Z,25.13
2022-12-14T03:19:53.257Z,26.10
2022-12-14T03:22:28.721Z,27.20
2022-12-14T03:25:01.626Z,27.13
2022-12-14T03:27:33.928Z,27.30
2022-12-14T03:30:08.577Z,27.67
2022-12-14T03:32:44.737Z,28.20
2022-12-14T03:35:19.465Z,28.70
2022-12-14T03:37:54.883Z,29.83
2022-12-14T03:40:30.939Z,30.93
2022-12-14T03:43:06.931Z,31.50
2022-12-14T03:45:46.938Z,33.07
2022-12-14T03:48:27.864Z,29.90
2022-12-14T03:51:07.332Z,32.97
2022-12-14T03:53:43.925Z,34.20
2022-12-14T03:56:19.869Z,34.13
2022-12-14T03:59:01.419Z,33.70
2022-12-14T04:01:40.394Z,32.40
2022-12-14T04:04:15.611Z,33.50
2022-12-14T04:06:52.957Z,32.60
2022-12-14T04:09:32.239Z,34.10
2022-12-14T04:12:26.756Z,35.67
2022-12-14T04:15:20.790Z,36.10
2022-12-14T04:18:27.700Z,29.80
2022-12-14T04:21:02.002Z,30.40
2022-12-14T04:26:32.340Z,32.47
2022-12-14T04:29:25.983Z,35.83
2022-12-14T04:32:00.680Z,34.80
2022-12-14T04:34:32.590Z,32.93
2022-12-14T04:37:06.139Z,32.63
2022-12-14T04:39:40.413Z,32.67
2022-12-14T04:42:13.964Z,32.97
2022-12-14T04:44:47.445Z,32.23
2022-12-14T04:47:19.454Z,33.42
2022-12-14T04:49:54.828Z,33.45
2022-12-14T04:52:31.239Z,32.77
2022-12-14T04:55:05.465Z,32.90
2022-12-14T04:57:41.247Z,30.67
2022-12-14T05:00:14.409Z,29.33
2022-12-14T05:03:07.356Z,32.73
2022-12-14T05:05:42.932Z,35.33
2022-12-14T05:08:22.760Z,35.13
2022-12-14T05:11:21.866Z,32.73
2022-12-14T05:13:52.112Z,32.30
2022-12-14T05:16:25.627Z,32.67
2022-12-14T05:18:54.728Z,31.20
2022-12-14T05:21:42.089Z,34.83
2022-12-14T05:24:10.910Z,34.30
2022-12-14T05:26:41.926Z,36.70
2022-12-14T05:29:14.480Z,36.55
2022-12-14T05:31:49.311Z,32.73
2022-12-14T05:34:18.947Z,32.73
2022-12-14T05:36:47.833Z,32.60
2022-12-14T05:39:17.509Z,35.77
2022-12-14T05:41:47.871Z,36.13
2022-12-14T05:44:20.073Z,34.60
2022-12-14T05:46:49.870Z,32.57
2022-12-14T05:49:21.736Z,35.13
2022-12-14T05:51:50.662Z,35.30
2022-12-14T05:54:20.588Z,33.87
2022-12-14T05:56:50.979Z,36.13
2022-12-14T05:59:20.452Z,34.90
2022-12-14T06:01:52.099Z,33.60
2022-12-14T06:04:23.108Z,36.90
2022-12-14T06:06:52.513Z,35.30
2022-12-14T06:09:22.400Z,36.37
2022-12-14T06:11:52.312Z,37.47
2022-12-14T06:14:23.676Z,40.97
2022-12-14T06:16:52.380Z,38.03
2022-12-14T06:19:21.336Z,35.77
2022-12-14T06:21:52.933Z,36.17
2022-12-14T06:24:23.171Z,35.30
2022-12-14T06:26:52.367Z,35.60
2022-12-14T06:29:22.682Z,37.23
2022-12-14T06:31:52.656Z,38.13
2022-12-14T06:34:26.369Z,34.10
2022-12-14T06:36:57.274Z,36.97
2022-12-14T06:39:28.843Z,35.33
2022-12-14T06:41:58.738Z,35.47
2022-12-14T06:44:27.550Z,36.13
2022-12-14T06:46:57.056Z,33.70
2022-12-14T06:49:32.485Z,34.73
2022-12-14T06:52:01.181Z,32.90
2022-12-14T06:54:30.232Z,33.10
2022-12-14T06:56:58.948Z,32.97
2022-12-14T06:59:28.218Z,33.63
2022-12-14T07:01:57.211Z,33.10
2022-12-14T07:04:25.952Z,32.60
2022-12-14T07:06:54.790Z,35.13
2022-12-14T07:09:24.310Z,34.80
2022-12-14T07:11:52.960Z,34.90
2022-12-14T07:14:24.824Z,36.40
2022-12-14T07:16:54.023Z,34.70
2022-12-14T07:19:22.989Z,36.97
2022-12-14T07:21:54.069Z,36.77
2022-12-14T07:24:22.915Z,36.83
2022-12-14T07:26:52.729Z,38.93
2022-12-14T07:29:21.734Z,37.87
2022-12-14T07:31:50.847Z,42.67
2022-12-14T07:34:20.141Z,41.63
2022-12-14T07:36:51.370Z,40.23
2022-12-14T07:39:21.189Z,44.63
2022-12-14T07:41:50.418Z,41.07
2022-12-14T07:44:22.698Z,42.00
2022-12-14T07:46:54.410Z,40.73
2022-12-14T07:49:23.660Z,44.37
2022-12-14T07:51:53.350Z,37.77
2022-12-14T07:54:25.948Z,45.20
2022-12-14T07:56:54.689Z,40.40
2022-12-14T07:59:23.677Z,42.90
2022-12-14T08:01:55.108Z,39.70
2022-12-14T08:04:24.277Z,42.57
2022-12-14T08:06:53.166Z,37.80
2022-12-14T08:09:21.980Z,41.43
2022-12-14T08:11:50.754Z,44.50
2022-12-14T08:14:19.863Z,42.57
2022-12-14T08:16:50.432Z,40.37
2022-12-14T08:19:20.578Z,41.27
2022-12-14T08:21:49.297Z,41.00
2022-12-14T08:24:18.188Z,39.43
2022-12-14T08:26:49.563Z,39.07
2022-12-14T08:29:21.862Z,40.92
2022-12-14T08:31:50.777Z,41.43
2022-12-14T08:34:22.260Z,39.07
2022-12-14T08:36:50.971Z,42.87
2022-12-14T08:39:19.844Z,41.43
2022-12-14T08:41:48.660Z,41.43
2022-12-14T08:44:18.254Z,40.50
2022-12-14T08:46:50.592Z,40.23
2022-12-14T08:49:25.354Z,39.87
2022-12-14T08:51:57.919Z,40.83
2022-12-14T08:54:26.799Z,40.23
2022-12-14T08:56:55.546Z,39.17
2022-12-14T08:59:51.987Z,38.23
2022-12-14T09:02:13.505Z,36.93
2022-12-14T09:04:43.705Z,35.83
2022-12-14T09:07:12.597Z,31.10
2022-12-14T09:09:41.883Z,34.63
2022-12-14T09:12:12.281Z,33.47
2022-12-14T09:14:41.306Z,31.10
2022-12-14T09:17:10.005Z,35.47
2022-12-14T09:19:38.876Z,33.20
2022-12-14T09:22:07.734Z,33.23
2022-12-14T09:24:36.996Z,35.70
2022-12-14T09:27:05.657Z,31.63
2022-12-14T09:29:34.554Z,31.03
2022-12-14T09:32:03.546Z,33.90
2022-12-14T09:34:32.350Z,33.77
2022-12-14T09:37:04.153Z,33.30
2022-12-14T09:39:35.259Z,33.37
2022-12-14T09:42:20.346Z,35.33
2022-12-14T09:45:01.287Z,34.77
2022-12-14T09:47:35.501Z,33.67
2022-12-14T09:52:39.572Z,33.60
2022-12-14T09:55:20.190Z,35.40
2022-12-14T09:57:53.499Z,31.90
2022-12-14T10:00:23.178Z,32.77
2022-12-14T10:03:07.863Z,30.43
2022-12-14T10:06:01.207Z,30.23
2022-12-14T10:08:35.313Z,32.20
2022-12-14T10:11:11.344Z,31.60
2022-12-14T10:13:56.489Z,34.03
2022-12-14T10:16:31.972Z,31.30
2022-12-14T10:19:24.241Z,32.57
2022-12-14T10:21:57.122Z,31.13
2022-12-14T10:24:30.722Z,32.53
2022-12-14T10:27:01.387Z,33.00
2022-12-14T10:29:37.766Z,33.07
2022-12-14T10:32:19.334Z,29.53
2022-12-14T10:34:48.543Z,31.73
2022-12-14T10:37:30.796Z,31.50
2022-12-14T10:40:29.221Z,31.70
2022-12-14T10:43:21.596Z,27.87
2022-12-14T10:46:06.115Z,30.20
2022-12-14T10:48:50.398Z,31.27
2022-12-14T10:51:24.923Z,30.77
2022-12-14T10:53:59.938Z,31.75
2022-12-14T10:56:31.907Z,31.33
2022-12-14T10:59:26.886Z,30.47
2022-12-14T11:02:05.718Z,30.43
2022-12-14T11:04:39.307Z,32.63
2022-12-14T11:07:14.810Z,30.00
2022-12-14T11:09:46.802Z,30.60
2022-12-14T11:12:23.049Z,29.70
2022-12-14T11:14:55.550Z,30.87
2022-12-14T11:17:37.343Z,31.27
2022-12-14T11:20:17.461Z,30.47
2022-12-14T11:22:50.419Z,30.70
2022-12-14T11:25:32.066Z,30.40
2022-12-14T11:28:36.170Z,27.50
2022-12-14T11:31:12.193Z,26.90
2022-12-14T11:33:49.809Z,29.27
2022-12-14T11:36:27.289Z,29.00
2022-12-14T11:38:57.419Z,28.13
2022-12-14T11:41:30.654Z,28.47
2022-12-14T11:44:21.635Z,30.67
2022-12-14T11:46:54.639Z,31.90
2022-12-14T11:49:29.140Z,29.20
2022-12-14T11:54:28.367Z,26.37
2022-12-14T11:57:01.606Z,27.90
2022-12-14T11:59:38.501Z,27.07
2022-12-14T12:02:17.876Z,27.60
2022-12-14T12:04:52.852Z,27.87
2022-12-14T12:09:55.475Z,26.13
2022-12-14T12:12:24.255Z,27.97
2022-12-14T12:14:58.255Z,25.73
2022-12-14T12:17:40.396Z,26.97
2022-12-14T12:20:28.132Z,28.10
2022-12-14T12:23:03.175Z,28.13
2022-12-14T12:25:37.658Z,25.17
2022-12-14T12:28:16.283Z,26.83
2022-12-14T12:30:50.988Z,24.60
2022-12-14T12:33:32.597Z,24.80
2022-12-14T12:36:04.845Z,24.47
2022-12-14T12:38:49.760Z,27.30
2022-12-14T13:07:44.815Z,24.47
2022-12-14T13:10:19.777Z,28.60
2022-12-14T13:12:51.527Z,27.67
2022-12-14T13:15:27.247Z,27.77
2022-12-14T13:18:00.324Z,26.67
2022-12-14T13:20:31.857Z,27.80
2022-12-14T13:23:21.648Z,30.97
2022-12-14T13:26:06.279Z,31.03
2022-12-14T13:28:50.514Z,29.35
2022-12-14T13:31:35.555Z,26.63
2022-12-14T13:34:28.368Z,24.65
2022-12-14T13:37:20.310Z,28.17
2022-12-14T13:40:20.316Z,29.03
2022-12-14T13:42:59.022Z,30.67
2022-12-14T13:45:40.077Z,27.17
2022-12-14T13:51:01.821Z,26.30
2022-12-14T13:53:38.134Z,27.57
2022-12-14T13:56:08.028Z,28.70
2022-12-14T13:58:43.127Z,27.50
2022-12-14T14:01:16.083Z,26.30
2022-12-14T14:03:56.394Z,26.70
2022-12-14T14:06:41.430Z,29.03
2022-12-14T14:09:59.167Z,31.30
2022-12-14T14:12:38.729Z,28.83
2022-12-14T14:16:11.251Z,26.13
2022-12-14T14:18:47.200Z,26.70
2022-12-14T14:21:52.472Z,27.27
2022-12-14T14:24:27.584Z,23.93
2022-12-14T14:27:10.707Z,27.17
2022-12-14T14:29:46.670Z,26.93
2022-12-14T14:32:38.234Z,26.40
2022-12-14T14:35:22.865Z,26.93
2022-12-14T14:38:01.531Z,27.77
2022-12-14T14:41:06.672Z,29.97
2022-12-14T14:43:32.160Z,28.83
2022-12-14T14:46:07.285Z,29.57
2022-12-14T14:48:40.700Z,29.10
2022-12-14T14:51:21.197Z,31.10
2022-12-14T14:57:55.407Z,27.90
2022-12-14T15:00:25.178Z,25.23
2022-12-14T15:02:55.552Z,26.27
2022-12-14T15:05:43.820Z,24.97
2022-12-14T15:08:22.529Z,26.30
2022-12-14T15:10:54.000Z,25.90
2022-12-14T15:13:28.429Z,30.00
2022-12-14T15:15:58.971Z,28.17
2022-12-14T15:18:30.583Z,28.83
2022-12-14T15:21:03.432Z,26.97
2022-12-14T15:23:38.002Z,29.37
2022-12-14T15:26:16.963Z,25.83
2022-12-14T15:28:52.795Z,30.03
2022-12-14T15:31:30.935Z,30.97
2022-12-14T15:34:01.260Z,32.90
2022-12-14T15:36:34.954Z,32.37
2022-12-14T15:39:04.499Z,35.15
2022-12-14T15:41:35.312Z,35.33
2022-12-14T15:44:20.473Z,34.80
2022-12-14T15:46:55.103Z,32.67
2022-12-14T15:49:24.236Z,31.67
2022-12-14T15:51:57.125Z,33.50
2022-12-14T15:54:28.854Z,35.80
2022-12-14T15:56:59.941Z,33.67
2022-12-14T15:59:32.031Z,33.53
2022-12-14T16:02:15.101Z,32.87
2022-12-14T16:04:45.524Z,33.83
2022-12-14T16:07:19.384Z,36.37
2022-12-14T16:09:51.952Z,37.10
2022-12-14T16:12:24.294Z,38.43
2022-12-14T16:14:56.910Z,35.53
2022-12-14T16:17:31.615Z,36.07
2022-12-14T16:20:04.797Z,33.87
2022-12-14T16:22:38.363Z,30.97
2022-12-14T16:25:19.817Z,35.83
2022-12-14T16:27:50.929Z,32.73
2022-12-14T16:30:30.640Z,36.03
2022-12-14T16:33:18.250Z,33.17
2022-12-14T16:35:58.078Z,28.80
2022-12-14T16:38:27.277Z,34.57
2022-12-14T16:41:05.187Z,34.93
2022-12-14T16:43:37.613Z,36.17
2022-12-14T16:46:21.129Z,32.60
2022-12-14T16:49:19.466Z,34.13
2022-12-14T16:52:07.237Z,34.53
2022-12-14T16:54:41.008Z,31.93
2022-12-14T16:57:20.443Z,34.90
2022-12-14T17:00:02.266Z,33.60
2022-12-14T17:02:36.308Z,26.27
2022-12-14T17:05:16.530Z,34.03
2022-12-14T17:07:47.665Z,29.13
2022-12-14T17:10:25.231Z,28.00
2022-12-14T17:13:01.929Z,31.57
2022-12-14T17:15:39.123Z,34.53
2022-12-14T17:18:13.987Z,28.87
2022-12-14T17:20:46.763Z,31.37
2022-12-14T17:23:18.520Z,30.60
2022-12-14T17:25:49.024Z,30.60
2022-12-14T17:28:25.048Z,31.23
2022-12-14T17:30:57.538Z,29.93
2022-12-14T17:33:28.792Z,29.17
2022-12-14T17:35:58.478Z,31.50
2022-12-14T17:38:27.508Z,28.80
2022-12-14T17:41:02.863Z,31.33
2022-12-14T17:43:35.600Z,30.43
2022-12-14T17:46:07.131Z,29.97
2022-12-14T17:48:40.658Z,30.63
2022-12-14T17:51:25.166Z,27.23
2022-12-14T17:53:56.150Z,29.55
2022-12-14T17:56:30.282Z,30.37
2022-12-14T17:59:01.714Z,28.63
2022-12-14T18:04:22.535Z,30.53
2022-12-14T18:07:00.909Z,29.70
2022-12-14T18:09:34.040Z,29.23
2022-12-14T18:14:55.000Z,28.27
2022-12-14T18:17:25.149Z,29.80
2022-12-14T18:19:59.457Z,33.67
2022-12-14T18:22:28.989Z,29.73
2022-12-14T18:25:08.507Z,29.17
2022-12-14T18:27:38.518Z,29.07
2022-12-14T18:30:12.120Z,29.17
2022-12-14T18:32:51.881Z,31.05
2022-12-14T18:35:26.226Z,30.80
2022-12-14T18:37:56.833Z,29.83
2022-12-14T18:40:29.496Z,30.43
2022-12-14T18:42:58.893Z,30.17
2022-12-14T18:45:33.806Z,31.37
2022-12-14T18:48:10.879Z,31.73
2022-12-14T18:50:49.667Z,33.97
2022-12-14T18:53:21.760Z,30.40
2022-12-14T18:56:01.712Z,33.73
2022-12-14T18:58:45.581Z,32.63
2022-12-14T19:01:18.520Z,33.13
2022-12-14T19:03:49.012Z,35.43
2022-12-14T19:06:43.615Z,30.17
2022-12-14T19:09:13.413Z,26.47
2022-12-14T19:11:48.134Z,33.33
2022-12-14T19:14:20.446Z,31.17
2022-12-14T19:16:52.182Z,31.17
2022-12-14T19:19:24.296Z,31.97
2022-12-14T19:21:57.615Z,34.37
2022-12-14T19:24:27.760Z,30.77
2022-12-14T19:26:58.519Z,34.17
2022-12-14T19:29:28.452Z,30.73
2022-12-14T19:32:05.327Z,33.87
2022-12-14T19:34:36.841Z,31.80
2022-12-14T19:37:06.967Z,30.77
2022-12-14T19:39:37.721Z,31.83
2022-12-14T19:42:07.103Z,33.03
2022-12-14T19:44:36.860Z,34.70
2022-12-14T19:47:06.449Z,36.80
2022-12-14T19:49:36.086Z,33.53
2022-12-14T19:52:09.080Z,34.33
2022-12-14T19:54:39.559Z,38.47
2022-12-14T19:57:11.081Z,35.60
2022-12-14T19:59:44.876Z,33.88
2022-12-14T20:02:15.087Z,35.30
2022-12-14T20:04:47.029Z,35.50
2022-12-14T20:07:16.682Z,36.27
2022-12-14T20:09:47.685Z,34.03
2022-12-14T20:12:18.060Z,35.97
2022-12-14T20:14:49.344Z,33.97
2022-12-14T20:17:19.387Z,34.23
2022-12-14T20:19:48.789Z,34.37
2022-12-14T20:22:18.165Z,36.30
2022-12-14T20:24:48.277Z,34.57
2022-12-14T20:27:20.018Z,32.23
2022-12-14T20:29:50.973Z,36.13
2022-12-14T20:32:20.097Z,32.03
2022-12-14T20:34:49.567Z,33.75
2022-12-14T20:37:34.276Z,37.07
2022-12-14T20:42:31.431Z,31.77
2022-12-14T20:45:06.702Z,34.87
2022-12-14T20:47:36.180Z,31.37
2022-12-14T20:50:06.258Z,31.13
2022-12-14T20:52:35.211Z,31.90
2022-12-14T20:55:04.672Z,31.95
2022-12-14T20:57:33.747Z,30.40
2022-12-14T21:00:05.620Z,32.93
2022-12-14T21:02:34.439Z,30.67
2022-12-14T21:05:04.421Z,30.43
2022-12-14T21:07:33.253Z,33.10
2022-12-14T21:10:04.944Z,33.67
2022-12-14T21:12:36.375Z,37.35
2022-12-14T21:15:06.841Z,37.00
2022-12-14T21:17:35.729Z,36.33
2022-12-14T21:20:05.702Z,46.90
2022-12-14T21:22:35.163Z,55.83
2022-12-14T21:25:06.385Z,42.40
2022-12-14T21:27:38.406Z,48.13
2022-12-14T21:30:13.477Z,36.70
2022-12-14T21:32:42.392Z,35.40
2022-12-14T21:35:12.695Z,33.47
2022-12-14T21:37:42.267Z,34.67
2022-12-14T21:40:33.693Z,29.57
2022-12-14T21:43:07.249Z,29.60
2022-12-14T21:45:38.975Z,28.57
2022-12-14T21:48:08.007Z,27.20
2022-12-14T21:50:42.318Z,26.20
2022-12-14T21:53:11.359Z,24.40
2022-12-14T21:55:49.336Z,28.17
2022-12-14T21:58:18.223Z,27.43
2022-12-14T22:00:47.772Z,27.73
2022-12-14T22:03:16.988Z,25.63
2022-12-14T22:05:46.573Z,23.70
2022-12-14T22:08:15.299Z,26.13
2022-12-14T22:10:44.273Z,26.70
2022-12-14T22:13:15.486Z,23.83
2022-12-14T22:15:46.223Z,25.47
2022-12-14T22:18:18.384Z,26.40
2022-12-14T22:20:50.638Z,24.85
2022-12-14T22:23:19.598Z,27.03
2022-12-14T22:25:50.186Z,26.20
2022-12-14T22:28:18.929Z,26.50
2022-12-14T22:30:48.370Z,27.00
2022-12-14T22:33:17.910Z,28.23
2022-12-14T22:35:47.516Z,26.27
2022-12-14T22:38:16.586Z,22.20
2022-12-14T22:40:46.098Z,26.33
2022-12-14T22:43:14.984Z,26.97
2022-12-14T22:45:44.317Z,24.90
2022-12-14T22:48:14.004Z,24.27
2022-12-14T22:50:43.360Z,25.73
2022-12-14T22:53:13.445Z,25.50
2022-12-14T22:55:46.296Z,24.40
2022-12-14T22:58:19.723Z,25.13
2022-12-14T23:00:49.668Z,26.73
2022-12-14T23:03:18.489Z,16.07
2022-12-14T23:05:50.223Z,25.03
2022-12-14T23:08:18.957Z,20.10
2022-12-14T23:11:06.685Z,24.33
2022-12-14T23:13:53.769Z,22.67
2022-12-14T23:16:41.074Z,22.60
2022-12-14T23:19:28.175Z,25.60
2022-12-14T23:22:15.156Z,24.10
2022-12-14T23:25:02.230Z,26.30
2022-12-14T23:27:49.328Z,28.33
2022-12-14T23:30:37.227Z,19.93
2022-12-14T23:33:24.286Z,24.60
2022-12-14T23:36:11.398Z,24.60
2022-12-14T23:38:58.892Z,26.23
2022-12-14T23:41:47.068Z,25.43
2022-12-14T23:44:34.423Z,24.30
2022-12-14T23:47:24.300Z,26.93
2022-12-14T23:50:11.768Z,25.93
2022-12-14T23:52:59.046Z,24.53
2022-12-14T23:55:49.716Z,23.00
2022-12-14T23:58:37.047Z,24.30
